Baltimore, Maryland
Traffic Map
Current Weather Conditions
Baltimore, Maryland
Few Clouds
Few Clouds
12°
Feels Like: 12°
Wind Chill: 12° Ceiling: Unl
Heat Index: 12° Visibility: 10mi
Dew Point: Wind: 10mph
Humidity: 62% Direction: 290° (WNW)
Pressure: 29.89in Gusts: 0mph
Raw Report DataKBWI 240754Z 29009KT 10SM FEW045 12/05 A2989 RMK AO2 SLP120 T01220050
Traffic Incident Summary
Active as of:
Severity:
Category:
InformationThere was an issue retrieving the traffic information for this location. Please try a different location or try again shortly.
Advertisements
Track Severe Weather on mobile